Time;durP1;ratioP1;P1;durP2;ratioP2;P2;SDS_P1;SDS_P2;PMS_P1;PMS_P2;Temp;Humidity;BMP_temperature;BMP_pressure;BME280_temperature;BME280_humidity;BME280_pressure;Samples;Min_cycle;Max_cycle;Signal;HPM_P1;HPM_P2
2022/12/02 00:01:13;;;;;;;16.08;6.47;;;;;;;3.39;100.00;102840.41;5063538;28;20039;-75
2022/12/02 00:03:39;;;;;;;14.95;5.97;;;;;;;3.37;100.00;102844.81;5058524;28;20038;-75
2022/12/02 00:06:13;;;;;;;11.25;5.63;;;;;;;3.29;100.00;102841.66;5059129;28;20055;-75
2022/12/02 00:08:39;;;;;;;12.63;6.25;;;;;;;3.26;100.00;102839.97;5074292;28;20059;-74
2022/12/02 00:11:21;;;;;;;13.25;5.80;;;;;;;3.29;100.00;102826.84;5058333;28;20067;-75
2022/12/02 00:13:47;;;;;;;14.82;6.20;;;;;;;3.29;100.00;102839.88;5059454;28;20481;-76
2022/12/02 00:16:19;;;;;;;23.30;6.43;;;;;;;3.24;100.00;102826.13;5056976;28;20156;-76
2022/12/02 00:18:46;;;;;;;18.48;5.68;;;;;;;3.27;100.00;102831.25;5058133;28;20056;-74
2022/12/02 00:21:12;;;;;;;15.98;6.88;;;;;;;3.22;100.00;102830.59;5075172;28;20079;-75
2022/12/02 00:23:37;;;;;;;11.68;5.85;;;;;;;3.24;100.00;102831.34;5059860;28;20055;-75
2022/12/02 00:26:02;;;;;;;13.82;7.28;;;;;;;3.06;100.00;102811.13;5040784;28;20029;-75
2022/12/02 00:28:28;;;;;;;9.13;6.43;;;;;;;3.06;100.00;102814.59;5040271;28;20041;-74
2022/12/02 00:30:53;;;;;;;17.77;7.70;;;;;;;2.87;100.00;102811.78;5056463;28;20024;-73
2022/12/02 00:33:18;;;;;;;10.90;5.35;;;;;;;3.09;100.00;102847.53;5058103;28;20426;-74
2022/12/02 00:35:44;;;;;;;14.23;5.57;;;;;;;3.07;100.00;102828.47;5060022;28;20025;-75
2022/12/02 00:38:10;;;;;;;12.95;4.93;;;;;;;3.15;100.00;102830.84;5058383;28;20029;-74
2022/12/02 00:40:35;;;;;;;13.50;5.45;;;;;;;3.00;100.00;102838.25;5058239;28;20497;-75
2022/12/02 00:48:29;;;;;;;9.55;6.05;;;;;;;3.07;100.00;102833.69;5056950;28;20052;-74
2022/12/02 00:50:55;;;;;;;12.38;4.43;;;;;;;2.97;100.00;102814.06;5057329;28;20426;-75
2022/12/02 00:53:20;;;;;;;6.75;5.15;;;;;;;3.07;100.00;102815.44;5058001;28;20033;-75
2022/12/02 00:55:46;;;;;;;12.88;5.88;;;;;;;3.05;100.00;102818.13;5058544;28;20082;-74
2022/12/02 00:58:11;;;;;;;12.90;6.38;;;;;;;2.70;100.00;102808.00;5056826;28;20547;-75
2022/12/02 01:00:36;;;;;;;12.00;5.45;;;;;;;2.79;100.00;102824.22;5045016;28;20121;-74
2022/12/02 01:03:02;;;;;;;6.70;3.83;;;;;;;2.71;100.00;102810.56;5060479;28;20047;-76
2022/12/02 01:05:27;;;;;;;20.05;7.03;;;;;;;2.67;100.00;102816.78;5061080;28;20040;-74
2022/12/02 01:07:52;;;;;;;10.10;5.47;;;;;;;2.73;100.00;102810.53;5061622;28;20111;-74
2022/12/02 01:10:18;;;;;;;11.88;6.40;;;;;;;2.78;100.00;102819.88;5059958;28;20044;-76
2022/12/02 01:12:43;;;;;;;17.05;5.75;;;;;;;2.67;100.00;102798.53;5061341;28;20161;-73
2022/12/02 01:15:09;;;;;;;16.27;5.50;;;;;;;2.83;100.00;102812.78;5059265;28;20396;-74
2022/12/02 01:17:35;;;;;;;16.95;4.82;;;;;;;2.78;100.00;102804.22;5059607;28;20044;-74
2022/12/02 01:20:00;;;;;;;15.00;6.80;;;;;;;2.94;100.00;102816.75;5059177;28;20033;-76
2022/12/02 01:22:25;;;;;;;10.00;6.18;;;;;;;3.01;100.00;102828.72;5063059;28;20032;-75
2022/12/02 01:24:51;;;;;;;10.18;4.50;;;;;;;2.90;100.00;102821.25;5060411;28;20059;-74
2022/12/02 01:27:16;;;;;;;10.38;6.00;;;;;;;2.74;100.00;102807.84;5061504;28;20037;-74
2022/12/02 01:29:42;;;;;;;12.43;7.68;;;;;;;2.93;100.00;102822.91;5059819;28;20021;-75
2022/12/02 01:32:07;;;;;;;12.90;8.30;;;;;;;2.89;100.00;102793.44;5062071;28;20029;-77
2022/12/02 01:34:32;;;;;;;13.55;8.05;;;;;;;2.79;100.00;102769.44;5045280;28;20138;-73
2022/12/02 01:36:58;;;;;;;9.80;5.47;;;;;;;3.09;100.00;102808.41;5061924;28;20025;-75
2022/12/02 01:39:23;;;;;;;13.18;6.07;;;;;;;3.07;100.00;102811.09;5059846;28;20048;-74
2022/12/02 01:41:49;;;;;;;9.48;4.60;;;;;;;3.15;100.00;102805.59;5061542;28;20017;-76
2022/12/02 01:44:14;;;;;;;15.35;7.65;;;;;;;2.93;100.00;102799.41;5061373;28;20032;-74
2022/12/02 01:46:41;;;;;;;16.02;5.47;;;;;;;2.93;100.00;102797.66;5060658;28;20028;-75
2022/12/02 01:49:06;;;;;;;14.95;7.60;;;;;;;2.94;100.00;102796.75;5060916;28;20037;-75
2022/12/02 01:51:32;;;;;;;14.68;7.55;;;;;;;2.95;100.00;102802.81;5044811;28;20040;-74
2022/12/02 01:53:57;;;;;;;12.52;7.53;;;;;;;2.89;100.00;102809.94;5027499;28;20097;-74
2022/12/02 01:56:26;;;;;;;12.13;5.85;;;;;;;2.85;100.00;102787.50;5060941;28;20056;-77
2022/12/02 01:58:51;;;;;;;8.95;5.75;;;;;;;3.07;100.00;102797.16;5062019;28;20051;-75
2022/12/02 02:01:31;;;;;;;8.57;5.95;;;;;;;3.04;100.00;102795.53;5060669;28;20411;-76
2022/12/02 02:03:56;;;;;;;13.05;5.07;;;;;;;2.79;100.00;102776.44;5061349;28;20028;-76
2022/12/02 02:06:27;;;;;;;10.77;4.88;;;;;;;3.00;100.00;102782.66;5063275;28;20032;-75
2022/12/02 02:08:53;;;;;;;16.00;6.78;;;;;;;2.86;100.00;102781.38;5068696;28;20115;-74
2022/12/02 02:11:19;;;;;;;12.32;5.75;;;;;;;2.84;100.00;102803.19;5058605;28;20201;-75
2022/12/02 02:13:45;;;;;;;9.23;7.28;;;;;;;2.88;100.00;102802.19;5060494;28;20032;-75
2022/12/02 02:16:12;;;;;;;8.27;6.25;;;;;;;2.68;100.00;102795.03;5067277;28;20050;-74
2022/12/02 02:18:38;;;;;;;14.38;6.80;;;;;;;2.55;100.00;102789.38;5043596;28;20467;-74
2022/12/02 02:21:06;;;;;;;16.35;6.93;;;;;;;2.80;100.00;102805.03;5060944;28;20059;-76
2022/12/02 02:23:31;;;;;;;8.65;6.10;;;;;;;2.82;100.00;102797.16;5076419;28;20028;-75
2022/12/02 02:25:58;;;;;;;16.50;6.03;;;;;;;2.87;100.00;102801.34;5059675;28;20032;-75
2022/12/02 02:28:25;;;;;;;14.07;7.10;;;;;;;2.63;100.00;102766.47;5060983;28;20115;-74
2022/12/02 02:30:53;;;;;;;16.77;7.75;;;;;;;2.62;100.00;102770.00;5058317;28;20028;-75
2022/12/02 02:33:21;;;;;;;14.88;6.85;;;;;;;2.50;100.00;102746.09;5059563;28;20111;-75
2022/12/02 02:35:47;;;;;;;20.80;6.70;;;;;;;2.67;100.00;102781.13;5058789;28;20085;-75
2022/12/02 02:38:18;;;;;;;14.05;6.13;;;;;;;2.58;100.00;102778.00;5060635;28;20037;-74
2022/12/02 02:40:44;;;;;;;8.85;6.43;;;;;;;2.74;100.00;102784.38;5059388;28;20016;-76
2022/12/02 02:43:10;;;;;;;11.43;5.90;;;;;;;2.74;100.00;102784.38;5059261;28;20400;-74
2022/12/02 02:45:38;;;;;;;16.05;6.20;;;;;;;2.78;100.00;102791.19;5066119;28;20033;-73
2022/12/02 02:48:05;;;;;;;13.98;6.13;;;;;;;2.85;100.00;102773.59;5062317;28;20060;-74
2022/12/02 02:50:32;;;;;;;12.32;5.63;;;;;;;2.87;100.00;102775.25;5056697;28;20029;-75
2022/12/02 02:52:58;;;;;;;13.35;6.43;;;;;;;2.61;100.00;102751.81;5049101;28;20030;-75
2022/12/02 02:55:25;;;;;;;12.57;8.05;;;;;;;2.65;100.00;102775.09;5058490;28;20028;-74
2022/12/02 02:57:51;;;;;;;9.18;5.70;;;;;;;2.67;100.00;102768.09;5059283;28;20035;-75
2022/12/02 03:00:18;;;;;;;6.85;3.65;;;;;;;2.66;100.00;102758.56;5060446;28;20476;-74
2022/12/02 03:02:46;;;;;;;16.63;7.35;;;;;;;2.63;100.00;102760.44;5058940;28;20028;-74
2022/12/02 03:05:12;;;;;;;10.82;5.13;;;;;;;2.58;100.00;102746.72;5058011;28;20063;-74
2022/12/02 03:07:37;;;;;;;10.05;5.63;;;;;;;2.66;100.00;102760.34;5057671;28;20442;-74
2022/12/02 03:10:04;;;;;;;10.80;7.22;;;;;;;2.76;100.00;102755.66;5058604;28;20590;-75
2022/12/02 03:12:30;;;;;;;9.25;6.05;;;;;;;2.82;100.00;102745.84;5058486;28;20032;-77
2022/12/02 03:14:56;;;;;;;6.70;4.65;;;;;;;2.85;100.00;102743.16;5060335;28;20043;-74
2022/12/02 03:17:22;;;;;;;6.80;5.07;;;;;;;2.71;100.00;102763.63;5059698;28;20087;-74
2022/12/02 03:19:47;;;;;;;7.65;5.15;;;;;;;2.74;100.00;102762.69;5057445;28;20033;-74
2022/12/02 03:22:13;;;;;;;10.43;7.15;;;;;;;2.75;100.00;102739.16;5059012;28;20411;-75
2022/12/02 03:24:39;;;;;;;14.07;5.18;;;;;;;2.84;100.00;102733.63;5059397;28;20480;-74
2022/12/02 03:27:06;;;;;;;19.65;7.57;;;;;;;3.04;100.00;102745.97;5058584;28;20573;-74
2022/12/02 03:29:32;;;;;;;9.95;5.35;;;;;;;2.99;100.00;102752.25;5041915;28;20167;-75
2022/12/02 03:31:59;;;;;;;15.35;5.25;;;;;;;2.97;100.00;102743.63;5057954;28;20160;-75
2022/12/02 03:34:25;;;;;;;15.10;7.75;;;;;;;3.08;100.00;102752.78;5059428;28;20093;-74
2022/12/02 03:36:51;;;;;;;20.27;10.43;;;;;;;3.05;100.00;102741.63;5057928;28;20067;-74
2022/12/02 03:39:17;;;;;;;9.73;7.85;;;;;;;3.06;100.00;102732.88;5058481;28;20455;-75
2022/12/02 03:41:45;;;;;;;10.40;6.78;;;;;;;2.97;100.00;102748.84;5055997;28;20036;-75
2022/12/02 03:44:10;;;;;;;9.75;6.63;;;;;;;3.00;100.00;102733.09;5066098;28;20032;-75
2022/12/02 03:46:36;;;;;;;17.27;7.63;;;;;;;2.85;100.00;102739.69;5060658;28;20032;-74
2022/12/02 03:49:02;;;;;;;23.58;9.07;;;;;;;2.86;100.00;102741.41;5056368;28;20041;-75
2022/12/02 03:51:28;;;;;;;16.70;8.45;;;;;;;2.67;100.00;102730.75;5058904;28;20396;-75
2022/12/02 03:53:54;;;;;;;25.25;8.40;;;;;;;2.56;100.00;102745.91;5058319;28;20028;-76
2022/12/02 03:56:19;;;;;;;11.30;7.45;;;;;;;2.75;100.00;102752.19;5059801;28;20032;-76
2022/12/02 03:58:48;;;;;;;15.48;7.22;;;;;;;2.73;100.00;102748.78;5058926;28;20032;-75
2022/12/02 04:01:15;;;;;;;10.90;6.30;;;;;;;2.85;100.00;102751.00;5057969;28;20021;-76
2022/12/02 04:03:41;;;;;;;14.65;7.70;;;;;;;2.85;100.00;102747.50;5058996;28;20032;-74
2022/12/02 04:06:06;;;;;;;10.00;6.63;;;;;;;2.74;100.00;102747.88;5058413;28;20024;-75
2022/12/02 04:08:31;;;;;;;15.30;6.45;;;;;;;2.63;100.00;102737.81;5056959;28;20029;-74
2022/12/02 04:10:57;;;;;;;19.23;7.80;;;;;;;2.70;100.00;102735.88;5059004;28;20533;-74
2022/12/02 04:13:23;;;;;;;10.32;6.90;;;;;;;2.81;100.00;102741.56;5057628;28;20021;-74
2022/12/02 04:15:48;;;;;;;13.00;8.23;;;;;;;2.81;100.00;102735.47;5041331;28;20504;-74
2022/12/02 04:18:13;;;;;;;15.38;6.40;;;;;;;2.85;100.00;102732.72;5056907;28;20531;-76
2022/12/02 04:20:39;;;;;;;9.50;6.13;;;;;;;2.87;100.00;102746.56;5040342;28;20065;-74
2022/12/02 04:23:04;;;;;;;17.95;6.63;;;;;;;2.82;100.00;102732.81;5059494;28;20032;-75
2022/12/02 04:25:29;;;;;;;15.55;6.50;;;;;;;2.72;100.00;102727.97;5057869;28;20059;-75
2022/12/02 04:27:55;;;;;;;12.70;7.50;;;;;;;2.57;100.00;102701.56;5041759;28;20059;-75
2022/12/02 04:30:20;;;;;;;5.32;4.70;;;;;;;2.65;100.00;102732.56;5057365;28;20029;-74
2022/12/02 04:32:46;;;;;;;9.60;5.43;;;;;;;2.66;100.00;102716.03;5064940;28;20570;-75
2022/12/02 04:35:11;;;;;;;12.38;4.68;;;;;;;2.85;100.00;102729.25;5039845;28;20638;-74
2022/12/02 04:37:36;;;;;;;20.17;6.05;;;;;;;2.77;100.00;102724.31;5058351;28;20025;-76
2022/12/02 04:40:02;;;;;;;12.95;6.82;;;;;;;2.80;100.00;102726.81;5058058;28;20037;-75
2022/12/02 04:42:28;;;;;;;16.00;8.38;;;;;;;2.79;100.00;102724.28;5058000;28;20070;-75
2022/12/02 04:44:53;;;;;;;8.13;5.47;;;;;;;2.95;100.00;102719.38;5059070;28;20057;-74
2022/12/02 04:47:18;;;;;;;15.57;7.13;;;;;;;3.03;100.00;102731.22;5056114;28;20062;-75
2022/12/02 04:49:44;;;;;;;12.20;5.57;;;;;;;2.94;100.00;102700.25;5056166;28;20040;-74
2022/12/02 04:52:09;;;;;;;12.77;7.38;;;;;;;3.11;100.00;102720.50;5056230;28;20547;-75
2022/12/02 04:54:34;;;;;;;15.48;7.68;;;;;;;3.13;100.00;102726.50;5058297;28;20342;-75
2022/12/02 04:57:00;;;;;;;16.02;6.57;;;;;;;3.13;100.00;102710.84;5057998;28;20033;-75
2022/12/02 04:59:25;;;;;;;14.10;7.93;;;;;;;3.24;100.00;102716.53;5041440;28;20033;-75
2022/12/02 05:01:51;;;;;;;13.43;6.38;;;;;;;3.27;100.00;102716.44;5042060;28;20028;-76
2022/12/02 05:04:16;;;;;;;13.45;7.78;;;;;;;3.27;100.00;102713.81;5056441;28;20067;-76
2022/12/02 05:06:41;;;;;;;9.15;4.25;;;;;;;3.29;100.00;102716.38;5058685;28;20013;-75
2022/12/02 05:09:07;;;;;;;10.90;6.40;;;;;;;3.22;100.00;102702.72;5059107;28;20032;-75
2022/12/02 05:11:33;;;;;;;15.63;6.32;;;;;;;3.10;100.00;102687.50;5058700;28;20029;-77
2022/12/02 05:13:58;;;;;;;18.08;7.43;;;;;;;3.27;100.00;102705.16;5057736;28;20029;-76
2022/12/02 05:16:23;;;;;;;16.33;7.55;;;;;;;3.23;100.00;102693.13;5040038;28;20067;-75
2022/12/02 05:18:49;;;;;;;17.70;8.32;;;;;;;3.23;100.00;102693.97;5058377;28;20033;-75
2022/12/02 05:21:14;;;;;;;18.80;6.28;;;;;;;3.29;100.00;102696.34;5057060;28;20107;-76
2022/12/02 05:23:39;;;;;;;9.73;5.63;;;;;;;3.27;100.00;102703.38;5057949;28;20218;-75
2022/12/02 05:26:05;;;;;;;18.88;5.80;;;;;;;3.20;100.00;102694.09;5057678;28;20025;-76
2022/12/02 05:28:30;;;;;;;12.68;6.65;;;;;;;3.14;100.00;102683.88;5056155;28;20060;-74
2022/12/02 05:30:56;;;;;;;20.55;9.02;;;;;;;3.05;100.00;102669.41;5039582;28;20056;-75
2022/12/02 05:33:21;;;;;;;17.75;7.40;;;;;;;3.09;100.00;102678.84;5038661;28;20041;-75
2022/12/02 05:35:46;;;;;;;13.68;7.03;;;;;;;3.19;100.00;102694.97;5038487;28;20025;-76
2022/12/02 05:38:12;;;;;;;14.25;7.28;;;;;;;3.02;100.00;102681.72;5040269;28;20647;-75
2022/12/02 05:40:37;;;;;;;18.65;8.50;;;;;;;3.22;100.00;102697.50;5037825;28;20051;-76
2022/12/02 05:43:16;;;;;;;16.08;6.50;;;;;;;3.26;100.00;102693.84;5054675;28;20392;-75
2022/12/02 05:45:42;;;;;;;20.02;7.13;;;;;;;3.27;100.00;102692.94;5059350;28;20028;-75
2022/12/02 05:48:12;;;;;;;18.08;7.40;;;;;;;3.23;100.00;102693.97;5058772;28;20575;-79
2022/12/02 05:50:39;;;;;;;10.05;6.00;;;;;;;3.26;100.00;102693.00;5066729;28;20054;-75
2022/12/02 05:53:06;;;;;;;24.77;7.88;;;;;;;3.25;100.00;102699.97;5058966;28;20478;-75
2022/12/02 05:55:34;;;;;;;12.85;8.70;;;;;;;3.24;100.00;102685.22;5059720;28;20033;-75
2022/12/02 05:58:01;;;;;;;11.75;5.93;;;;;;;3.15;100.00;102693.38;5057770;28;20039;-75
2022/12/02 06:00:27;;;;;;;24.85;7.32;;;;;;;3.08;100.00;102684.09;5075351;28;20408;-75
2022/12/02 06:02:58;;;;;;;7.32;6.07;;;;;;;3.15;100.00;102696.00;5060314;28;20131;-78
2022/12/02 06:05:32;;;;;;;10.52;5.90;;;;;;;3.10;100.00;102687.50;5060479;28;20070;-76
2022/12/02 06:08:07;;;;;;;13.90;7.68;;;;;;;3.26;100.00;102703.44;5059839;28;20491;-73
2022/12/02 06:10:35;;;;;;;21.20;6.78;;;;;;;3.10;100.00;102692.72;5058679;28;20523;-75
2022/12/02 06:13:13;;;;;;;13.00;5.07;;;;;;;3.11;100.00;102693.56;5059476;28;20064;-75
2022/12/02 06:15:39;;;;;;;9.70;6.10;;;;;;;3.00;100.00;102696.56;5065446;28;20506;-74
2022/12/02 06:18:33;;;;;;;16.55;5.93;;;;;;;3.07;100.00;102703.25;5056998;28;20033;-73
2022/12/02 06:21:09;;;;;;;16.58;6.43;;;;;;;3.10;100.00;102700.56;5053303;28;20411;-75
2022/12/02 06:23:39;;;;;;;24.60;7.78;;;;;;;2.99;100.00;102700.09;5054610;28;20043;-74
2022/12/02 06:26:05;;;;;;;12.52;6.07;;;;;;;3.08;100.00;102710.19;5056814;28;20698;-78
2022/12/02 06:28:35;;;;;;;10.82;6.65;;;;;;;3.07;100.00;102717.16;5039927;28;20040;-79
2022/12/02 06:31:09;;;;;;;14.30;7.47;;;;;;;2.94;100.00;102696.78;5056651;28;20456;-76
2022/12/02 06:33:37;;;;;;;14.25;5.30;;;;;;;3.04;100.00;102705.97;5055291;28;20052;-78
2022/12/02 06:36:09;;;;;;;8.23;5.82;;;;;;;3.12;100.00;102711.78;5057098;28;20040;-78
2022/12/02 06:38:50;;;;;;;9.80;5.05;;;;;;;3.04;100.00;102687.72;5041753;28;20040;-75
2022/12/02 06:41:19;;;;;;;15.13;8.57;;;;;;;2.95;100.00;102677.63;5055843;28;20055;-75
2022/12/02 06:45:03;;;;;;;8.43;5.55;;;;;;;3.22;100.00;102710.53;5056707;28;20087;-75
2022/12/02 06:46:32;;;;;;;13.73;7.22;;;;;;;3.21;100.00;102711.44;5057413;28;20936;-77
2022/12/02 06:48:58;;;;;;;14.02;5.32;;;;;;;3.11;100.00;102715.28;5063247;28;20036;-76
2022/12/02 06:51:23;;;;;;;14.55;7.50;;;;;;;3.02;100.00;102689.53;5053232;28;20131;-75
2022/12/02 06:53:50;;;;;;;21.15;7.75;;;;;;;3.02;100.00;102689.53;5056491;28;20483;-78
2022/12/02 06:56:25;;;;;;;15.45;6.95;;;;;;;3.08;100.00;102697.16;5056007;28;20047;-79
2022/12/02 06:59:00;;;;;;;23.30;9.52;;;;;;;3.08;100.00;102704.97;5055060;28;20024;-77
2022/12/02 07:01:30;;;;;;;20.20;7.28;;;;;;;2.99;100.00;102700.09;5062351;28;20028;-74
2022/12/02 07:04:17;;;;;;;18.13;9.35;;;;;;;2.75;100.00;102681.81;5058010;28;20032;-75
2022/12/02 07:06:45;;;;;;;22.70;8.85;;;;;;;2.85;100.00;102704.06;5059585;28;20094;-76
2022/12/02 07:09:28;;;;;;;16.55;8.25;;;;;;;2.73;100.00;102696.66;5060350;28;20024;-74
2022/12/02 07:11:54;;;;;;;20.73;8.73;;;;;;;2.77;100.00;102694.78;5058404;28;20611;-75
2022/12/02 07:14:28;;;;;;;12.57;8.13;;;;;;;2.68;100.00;102714.22;5055745;28;20538;-75
2022/12/02 07:16:57;;;;;;;19.83;16.15;;;;;;;2.58;100.00;102710.22;5057630;28;20024;-75
2022/12/02 07:19:35;;;;;;;14.73;8.45;;;;;;;2.61;100.00;102715.31;5064449;28;20048;-74
2022/12/02 07:22:01;;;;;;;14.23;8.05;;;;;;;2.65;100.00;102722.97;5056572;28;20053;-75
2022/12/02 07:24:26;;;;;;;12.13;8.27;;;;;;;2.46;100.00;102698.44;5054539;28;20675;-74
2022/12/02 07:26:52;;;;;;;16.30;7.95;;;;;;;2.62;100.00;102723.09;5040975;28;20033;-74
2022/12/02 07:29:29;;;;;;;16.67;8.35;;;;;;;2.64;100.00;102708.25;5040684;28;20033;-74
2022/12/02 07:31:55;;;;;;;19.58;7.65;;;;;;;2.50;100.00;102707.00;5057042;28;20083;-75
2022/12/02 07:34:20;;;;;;;8.57;4.82;;;;;;;2.51;100.00;102713.94;5040463;28;20074;-75
2022/12/02 07:36:46;;;;;;;13.60;7.05;;;;;;;2.56;100.00;102728.50;5023481;28;20033;-78
2022/12/02 07:39:11;;;;;;;17.83;7.80;;;;;;;2.49;100.00;102729.63;5055720;28;20028;-74
2022/12/02 07:41:37;;;;;;;15.00;7.97;;;;;;;2.45;100.00;102723.66;5048469;28;20029;-77
2022/12/02 07:44:02;;;;;;;12.00;7.90;;;;;;;2.48;100.00;102738.31;5037614;28;20504;-75
2022/12/02 07:46:28;;;;;;;17.30;6.57;;;;;;;2.24;100.00;102733.03;5039392;28;20060;-74
2022/12/02 07:48:53;;;;;;;11.70;6.38;;;;;;;2.39;100.00;102736.88;5055232;28;20033;-73
2022/12/02 07:51:19;;;;;;;17.92;9.10;;;;;;;2.31;100.00;102711.97;5055759;28;20032;-75
2022/12/02 07:53:44;;;;;;;16.45;6.10;;;;;;;2.32;100.00;102717.16;5024839;28;20492;-75
2022/12/02 07:56:09;;;;;;;16.67;7.63;;;;;;;2.24;100.00;102722.63;5054267;28;20037;-76
2022/12/02 07:58:35;;;;;;;15.65;7.18;;;;;;;2.33;100.00;102721.47;5037103;28;20028;-74
2022/12/02 08:01:00;;;;;;;15.77;8.32;;;;;;;2.14;100.00;102721.22;5023578;28;20056;-74
2022/12/02 08:03:25;;;;;;;13.98;7.03;;;;;;;2.26;100.00;102754.69;5054953;28;20044;-74
2022/12/02 08:05:51;;;;;;;17.20;8.98;;;;;;;2.41;100.00;102749.88;5054446;28;20024;-76
2022/12/02 08:08:16;;;;;;;17.88;5.97;;;;;;;2.25;100.00;102736.50;5056268;28;20063;-74
2022/12/02 08:10:42;;;;;;;15.32;8.88;;;;;;;2.12;100.00;102749.06;5039846;28;20037;-75
2022/12/02 08:13:07;;;;;;;6.95;3.85;;;;;;;1.81;100.00;102750.00;5040605;28;20025;-75
2022/12/02 08:15:32;;;;;;;6.00;4.57;;;;;;;1.56;100.00;102746.44;5055814;28;20033;-75
2022/12/02 08:17:58;;;;;;;7.57;6.20;;;;;;;1.53;100.00;102764.75;5030728;28;20618;-73
2022/12/02 08:20:23;;;;;;;11.02;5.45;;;;;;;1.55;100.00;102758.59;5054353;28;20504;-73
2022/12/02 08:22:49;;;;;;;9.55;8.23;;;;;;;1.47;100.00;102750.16;5055748;28;20089;-75
2022/12/02 08:25:14;;;;;;;8.68;4.80;;;;;;;1.64;100.00;102766.13;5039573;28;20144;-74
2022/12/02 08:27:39;;;;;;;11.10;6.85;;;;;;;1.55;100.00;102774.22;5056676;28;20032;-74
2022/12/02 08:30:07;;;;;;;7.13;5.63;;;;;;;1.60;100.00;102768.88;5057411;28;20032;-74
2022/12/02 08:32:35;;;;;;;18.55;7.45;;;;;;;1.43;100.00;102769.34;5056085;28;20187;-76
2022/12/02 08:35:01;;;;;;;17.77;16.50;;;;;;;1.41;100.00;102771.97;5055022;28;20444;-74
2022/12/02 08:37:26;;;;;;;16.42;9.13;;;;;;;1.37;100.00;102764.31;5055204;28;20035;-75
2022/12/02 08:39:51;;;;;;;16.35;9.90;;;;;;;1.30;100.00;102741.97;5056250;28;20043;-75
2022/12/02 08:42:17;;;;;;;25.45;22.85;;;;;;;1.41;100.00;102776.34;5055910;28;20116;-74
2022/12/02 08:44:42;;;;;;;33.85;31.50;;;;;;;1.26;100.00;102782.81;5054350;28;20036;-73
2022/12/02 08:47:08;;;;;;;13.35;11.35;;;;;;;1.17;100.00;102768.31;5053806;28;20032;-74
2022/12/02 08:49:33;;;;;;;13.32;11.73;;;;;;;1.38;100.00;102789.44;5022223;28;20094;-75
2022/12/02 08:51:58;;;;;;;15.77;14.40;;;;;;;1.17;100.00;102772.66;5039856;28;20028;-74
2022/12/02 08:54:24;;;;;;;19.13;15.20;;;;;;;1.35;100.00;102790.38;5054594;28;20031;-75
2022/12/02 08:56:49;;;;;;;17.30;15.68;;;;;;;1.30;100.00;102800.06;5054449;28;20736;-75
2022/12/02 08:59:15;;;;;;;16.90;15.10;;;;;;;1.44;100.00;102791.88;5056841;28;20031;-73
2022/12/02 09:01:41;;;;;;;22.63;20.98;;;;;;;1.38;100.00;102786.84;5055950;28;20130;-75
2022/12/02 09:04:06;;;;;;;15.90;14.02;;;;;;;1.39;100.00;102788.53;5055307;28;20028;-75
2022/12/02 09:06:31;;;;;;;12.50;10.48;;;;;;;1.40;100.00;102793.72;5038643;28;20060;-74
2022/12/02 09:08:57;;;;;;;18.27;16.73;;;;;;;1.40;100.00;102796.31;5054349;28;20021;-76
2022/12/02 09:11:22;;;;;;;18.20;15.07;;;;;;;1.26;100.00;102797.56;5056733;28;20024;-74
2022/12/02 09:13:47;;;;;;;13.75;12.43;;;;;;;1.33;100.00;102804.31;5055538;28;20502;-74
2022/12/02 09:16:13;;;;;;;12.20;11.02;;;;;;;1.40;100.00;102790.25;5039476;28;20119;-74
2022/12/02 09:18:38;;;;;;;13.88;12.45;;;;;;;1.26;100.00;102813.19;5055064;28;20063;-73
2022/12/02 09:21:04;;;;;;;14.45;10.65;;;;;;;1.46;100.00;102795.28;5055926;28;20048;-74
2022/12/02 09:23:29;;;;;;;12.70;11.63;;;;;;;1.33;100.00;102793.91;5060282;28;20496;-73
2022/12/02 09:25:55;;;;;;;16.77;11.95;;;;;;;1.60;100.00;102802.69;5041373;28;20021;-76
2022/12/02 09:28:22;;;;;;;24.00;22.48;;;;;;;1.37;100.00;102803.34;5066345;28;20095;-75
2022/12/02 09:30:48;;;;;;;10.73;9.80;;;;;;;1.36;100.00;102799.03;5058016;28;20679;-74
2022/12/02 09:33:13;;;;;;;18.27;12.27;;;;;;;1.42;100.00;102799.72;5059230;28;20124;-75
2022/12/02 09:35:39;;;;;;;14.77;13.35;;;;;;;1.36;100.00;102793.84;5058517;28;20033;-74
2022/12/02 09:38:04;;;;;;;15.25;13.25;;;;;;;1.34;100.00;102778.25;5058220;28;20024;-73
2022/12/02 09:40:32;;;;;;;11.80;10.63;;;;;;;1.66;100.00;102802.53;5059297;28;20120;-75
2022/12/02 09:42:58;;;;;;;12.52;11.35;;;;;;;1.70;100.00;102793.75;5059578;28;20826;-75
2022/12/02 09:45:23;;;;;;;22.17;9.65;;;;;;;1.56;100.00;102791.50;5041862;28;20049;-75
2022/12/02 09:47:49;;;;;;;9.95;8.55;;;;;;;1.69;100.00;102797.22;5058438;28;20116;-75
2022/12/02 09:50:16;;;;;;;13.88;9.20;;;;;;;1.50;100.00;102765.66;5060359;28;20028;-74
2022/12/02 09:52:42;;;;;;;13.90;10.35;;;;;;;1.55;100.00;102789.81;5060130;28;20086;-77
2022/12/02 09:55:14;;;;;;;16.55;9.23;;;;;;;1.45;100.00;102772.75;5042907;28;20033;-73
2022/12/02 09:57:40;;;;;;;13.35;9.75;;;;;;;1.64;100.00;102780.91;5057178;28;20029;-73
2022/12/02 10:00:24;;;;;;;12.50;8.55;;;;;;;2.11;100.00;102785.56;5058206;28;20561;-74
2022/12/02 10:02:51;;;;;;;9.52;8.40;;;;;;;2.53;100.00;102782.50;5058834;28;20114;-75
2022/12/02 10:05:19;;;;;;;11.05;6.60;;;;;;;2.67;100.00;102781.13;5059863;28;20064;-74
2022/12/02 10:07:46;;;;;;;11.77;7.45;;;;;;;2.42;100.00;102788.06;5058320;28;20079;-77
2022/12/02 10:10:18;;;;;;;13.15;7.20;;;;;;;2.31;100.00;102771.91;5058823;28;20032;-74
2022/12/02 10:12:44;;;;;;;20.25;5.18;;;;;;;2.13;100.00;102766.38;5058533;28;20832;-75
2022/12/02 10:15:16;;;;;;;13.70;6.50;;;;;;;2.42;100.00;102788.91;5058889;28;20104;-74
2022/12/02 10:17:44;;;;;;;10.30;5.15;;;;;;;2.55;100.00;102768.53;5058733;28;20026;-76
2022/12/02 10:20:16;;;;;;;15.55;6.82;;;;;;;2.56;100.00;102779.78;5066346;28;20484;-75
2022/12/02 10:23:21;;;;;;;14.25;6.05;;;;;;;2.56;100.00;102779.78;5065675;28;20025;-75
2022/12/02 10:25:57;;;;;;;11.57;8.02;;;;;;;2.35;100.00;102777.00;5050215;28;20036;-78
2022/12/02 10:28:31;;;;;;;9.73;6.15;;;;;;;2.39;100.00;102768.16;5057026;28;20097;-74
2022/12/02 10:31:14;;;;;;;17.83;8.85;;;;;;;2.54;100.00;102771.16;5058398;28;20034;-74
2022/12/02 10:33:55;;;;;;;14.75;6.65;;;;;;;2.54;100.00;102774.63;5055913;28;20556;-75
2022/12/02 10:36:31;;;;;;;;;;;;;;;2.68;100.00;102775.03;5061781;28;20036;-77
2022/12/02 10:39:17;;;;;;;13.00;7.93;;;;;;;2.63;100.00;102765.66;5057593;28;20379;-78
2022/12/02 10:41:43;;;;;;;19.75;8.73;;;;;;;2.64;100.00;102778.63;5058971;28;20047;-74
2022/12/02 10:44:15;;;;;;;9.82;6.82;;;;;;;2.20;100.00;102756.63;5044032;28;20029;-74
2022/12/02 10:46:41;;;;;;;16.85;7.65;;;;;;;2.27;100.00;102752.94;5057834;28;20024;-73
2022/12/02 10:49:27;;;;;;;11.93;7.32;;;;;;;2.39;100.00;102770.75;5054672;28;20053;-73
2022/12/02 10:51:54;;;;;;;8.55;6.85;;;;;;;2.47;100.00;102766.16;5057290;28;20078;-75
2022/12/02 10:54:24;;;;;;;12.43;6.40;;;;;;;2.18;100.00;102774.06;5040830;28;20028;-73
2022/12/02 10:56:50;;;;;;;18.87;5.30;;;;;;;2.21;100.00;102758.34;5057535;28;20056;-73
2022/12/02 10:59:17;;;;;;;18.90;8.02;;;;;;;2.28;100.00;102778.06;5057808;28;20040;-74
2022/12/02 11:01:44;;;;;;;10.50;5.80;;;;;;;2.12;100.00;102756.88;5039939;28;20100;-75
2022/12/02 11:04:14;;;;;;;11.40;6.25;;;;;;;2.13;100.00;102773.34;5056843;28;20048;-75
2022/12/02 11:06:41;;;;;;;10.57;8.90;;;;;;;2.22;100.00;102765.22;5057774;28;20035;-73
2022/12/02 11:09:17;;;;;;;9.35;6.57;;;;;;;1.99;100.00;102748.59;5039956;28;20040;-76
2022/12/02 11:11:43;;;;;;;19.35;8.55;;;;;;;2.14;100.00;102749.00;5056815;28;20013;-74
2022/12/02 11:14:14;;;;;;;9.88;6.57;;;;;;;2.31;100.00;102764.09;5057739;28;20484;-75
2022/12/02 11:16:39;;;;;;;7.93;6.10;;;;;;;2.56;100.00;102756.34;5058108;28;20051;-78
2022/12/02 11:19:07;;;;;;;16.10;9.38;;;;;;;2.48;100.00;102751.34;5056892;28;20032;-75
2022/12/02 11:21:32;;;;;;;8.70;6.55;;;;;;;2.71;100.00;102750.59;5058431;28;20076;-76
2022/12/02 11:24:23;;;;;;;14.63;5.57;;;;;;;2.80;100.00;102736.41;5056652;28;20500;-76